Time;durP1;ratioP1;P1;durP2;ratioP2;P2;SDS_P1;SDS_P2;PMS_P1;PMS_P2;Temp;Humidity;BMP_temperature;BMP_pressure;BME280_temperature;BME280_humidity;BME280_pressure;Samples;Min_cycle;Max_cycle;Signal;HPM_P1;HPM_P2
2023/07/30 00:00:59;;;;;;;;;;;;;;;13.72;100.00;100905.44;4994593;28;20297;-79
2023/07/30 00:03:25;;;;;;;;;;;;;;;13.71;100.00;100907.25;5010459;28;19986;-80
2023/07/30 00:05:54;;;;;;;;;;;;;;;13.72;100.00;100895.47;5008848;28;20275;-78
2023/07/30 00:08:19;;;;;;;;;;;;;;;13.68;100.00;100902.13;5010804;28;19917;-81
2023/07/30 00:10:44;;;;;;;;;;;;;;;13.55;100.00;100901.56;4991136;28;20339;-79
2023/07/30 00:13:09;;;;;;;;;;;;;;;13.54;100.00;100903.38;4991017;28;19925;-82
2023/07/30 00:15:35;;;;;;;;;;;;;;;13.35;100.00;100910.41;4993046;28;20260;-81
2023/07/30 00:18:00;;;;;;;;;;;;;;;13.35;100.00;100904.16;5010263;28;20025;-81
2023/07/30 00:20:25;;;;;;;;;;;;;;;13.31;100.00;100902.72;5023349;28;19968;-80
2023/07/30 00:22:50;;;;;;;;;;;;;;;13.37;100.00;100904.00;5009573;28;20023;-81
2023/07/30 00:25:16;;;;;;;;;;;;;;;13.46;100.00;100898.69;5007771;28;19921;-80
2023/07/30 00:27:41;;;;;;;;;;;;;;;13.54;100.00;100899.84;5010948;28;19921;-81
2023/07/30 00:30:06;;;;;;;;;;;;;;;13.40;100.00;100880.31;5010402;28;19923;-80
2023/07/30 00:32:31;;;;;;;;;;;;;;;13.49;100.00;100889.47;5012801;28;19932;-81
2023/07/30 00:35:00;;;;;;;;;;;;;;;13.53;100.00;100898.97;5023404;28;19917;-79
2023/07/30 00:37:25;;;;;;;;;;;;;;;13.60;100.00;100894.75;5011626;28;19921;-80
2023/07/30 00:39:50;;;;;;;;;;;;;;;13.59;100.00;100901.13;4992826;28;20323;-80
2023/07/30 00:42:15;;;;;;;;;;;;;;;13.53;100.00;100898.97;4994931;28;20249;-77
2023/07/30 00:44:41;;;;;;;;;;;;;;;13.48;100.00;100910.19;4993116;28;20485;-77
2023/07/30 00:47:06;;;;;;;;;;;;;;;13.54;100.00;100908.78;4991492;28;20344;-80
2023/07/30 00:49:31;;;;;;;;;;;;;;;13.58;100.00;100901.28;4992096;28;20284;-80
2023/07/30 00:51:56;;;;;;;;;;;;;;;13.54;100.00;100899.84;4992823;28;19925;-80
2023/07/30 00:54:22;;;;;;;;;;;;;;;13.47;100.00;100905.78;5007116;28;19953;-78
2023/07/30 00:56:50;;;;;;;;;;;;;;;13.30;100.00;100909.09;4991655;28;19925;-78
2023/07/30 00:59:15;;;;;;;;;;;;;;;13.33;100.00;100919.63;4991668;28;19932;-78
2023/07/30 01:01:41;;;;;;;;;;;;;;;13.37;100.00;100918.38;5009807;28;19925;-80
2023/07/30 01:04:06;;;;;;;;;;;;;;;13.37;100.00;100917.50;5008597;28;19960;-82
2023/07/30 01:06:31;;;;;;;;;;;;;;;13.34;100.00;100914.06;5009194;28;19928;-78
2023/07/30 01:08:56;;;;;;;;;;;;;;;13.42;100.00;100926.06;5007922;28;19971;-76
2023/07/30 01:11:21;;;;;;;;;;;;;;;13.37;100.00;100923.75;5009304;28;20011;-76
2023/07/30 01:13:47;;;;;;;;;;;;;;;13.38;100.00;100927.28;5009378;28;20044;-79
2023/07/30 01:16:12;;;;;;;;;;;;;;;13.46;100.00;100932.91;4994908;28;19917;-81
2023/07/30 01:18:37;;;;;;;;;;;;;;;13.44;100.00;100937.56;4993921;28;19964;-76
2023/07/30 01:21:02;;;;;;;;;;;;;;;13.49;100.00;100929.94;4992377;28;20014;-76
2023/07/30 01:23:28;;;;;;;;;;;;;;;13.52;100.00;100937.72;4988024;28;19929;-80
2023/07/30 01:25:56;;;;;;;;;;;;;;;13.50;100.00;100939.75;4992775;28;19917;-80
2023/07/30 01:28:21;;;;;;;;;;;;;;;13.48;100.00;100920.97;4993254;28;19948;-78
2023/07/30 01:30:48;;;;;;;;;;;;;;;13.54;100.00;100938.44;5015035;28;19996;-78
2023/07/30 01:33:13;;;;;;;;;;;;;;;13.53;100.00;100935.91;5017247;28;20374;-79
2023/07/30 01:35:38;;;;;;;;;;;;;;;13.54;100.00;100937.59;5015531;28;19920;-78
2023/07/30 01:38:05;;;;;;;;;;;;;;;13.52;100.00;100942.28;4995947;28;19929;-79
2023/07/30 01:40:30;;;;;;;;;;;;;;;13.43;100.00;100943.97;5014324;28;19925;-78
2023/07/30 01:42:55;;;;;;;;;;;;;;;13.40;100.00;100944.19;5030876;28;19966;-78
2023/07/30 01:45:21;;;;;;;;;;;;;;;13.35;100.00;100945.44;5011474;28;20295;-77
2023/07/30 01:47:46;;;;;;;;;;;;;;;13.35;100.00;100950.84;4995337;28;20304;-77
2023/07/30 01:50:11;;;;;;;;;;;;;;;13.37;100.00;100948.03;5013730;28;20365;-76
2023/07/30 01:52:36;;;;;;;;;;;;;;;13.40;100.00;100949.59;5015378;28;20010;-77
2023/07/30 01:55:02;;;;;;;;;;;;;;;13.40;100.00;100955.81;4998240;28;20114;-79
2023/07/30 01:57:27;;;;;;;;;;;;;;;13.26;100.00;100950.81;5016302;28;20322;-77
2023/07/30 01:59:52;;;;;;;;;;;;;;;13.35;100.00;100953.53;5015429;28;20046;-77
2023/07/30 02:02:17;;;;;;;;;;;;;;;13.39;100.00;100955.97;5033352;28;20314;-84
2023/07/30 02:04:42;;;;;;;;;;;;;;;13.37;100.00;100956.13;5000004;28;19968;-78
2023/07/30 02:07:08;;;;;;;;;;;;;;;13.45;100.00;100953.59;4998076;28;20052;-80
2023/07/30 02:09:33;;;;;;;;;;;;;;;13.34;100.00;100951.00;4995888;28;19967;-78
2023/07/30 02:11:58;;;;;;;;;;;;;;;13.35;100.00;100947.31;5014526;28;20039;-78
2023/07/30 02:14:23;;;;;;;;;;;;;;;13.29;100.00;100954.06;5032394;28;20334;-78
2023/07/30 02:16:49;;;;;;;;;;;;;;;13.35;100.00;100955.41;5016548;28;20390;-76
2023/07/30 02:19:14;;;;;;;;;;;;;;;13.42;100.00;100939.56;5013919;28;20422;-80
2023/07/30 02:21:42;;;;;;;;;;;;;;;13.48;100.00;100944.41;5015537;28;19932;-79
2023/07/30 02:24:09;;;;;;;;;;;;;;;13.50;100.00;100945.97;4996899;28;20317;-79
2023/07/30 02:26:35;;;;;;;;;;;;;;;13.49;100.00;100944.25;5001822;28;20007;-78
2023/07/30 02:29:00;;;;;;;;;;;;;;;13.59;100.00;100938.06;5014237;28;20007;-84
2023/07/30 02:31:25;;;;;;;;;;;;;;;13.65;100.00;100942.88;5016136;28;20406;-79
2023/07/30 02:33:51;;;;;;;;;;;;;;;13.71;100.00;100936.94;5012402;28;19948;-81
2023/07/30 02:36:16;;;;;;;;;;;;;;;13.84;100.00;100943.94;5015076;28;20015;-82
2023/07/30 02:38:41;;;;;;;;;;;;;;;13.90;100.00;100938.84;5013761;28;19977;-79
2023/07/30 02:41:06;;;;;;;;;;;;;;;13.95;100.00;100946.50;4998552;28;19929;-83
2023/07/30 02:43:31;;;;;;;;;;;;;;;13.98;100.00;100931.91;4997380;28;19936;-76
2023/07/30 02:45:57;;;;;;;;;;;;;;;14.05;100.00;100936.59;4997413;28;20022;-77
2023/07/30 02:48:22;;;;;;;;;;;;;;;14.11;100.00;100932.47;5013670;28;19963;-82
2023/07/30 02:50:47;;;;;;;;;;;;;;;14.10;100.00;100937.03;5012903;28;19929;-82
2023/07/30 02:53:12;;;;;;;;;;;;;;;14.12;100.00;100936.88;5011893;28;19928;-84
2023/07/30 02:55:37;;;;;;;;;;;;;;;14.09;100.00;100929.94;4997007;28;20230;-79
2023/07/30 02:58:03;;;;;;;;;;;;;;;14.09;100.00;100938.03;5012898;28;20011;-82
2023/07/30 03:00:28;;;;;;;;;;;;;;;14.13;100.00;100933.19;5031433;28;19955;-81
2023/07/30 03:02:53;;;;;;;;;;;;;;;14.23;100.00;100930.50;4998442;28;19928;-79
2023/07/30 03:05:18;;;;;;;;;;;;;;;14.26;100.00;100930.22;4996966;28;19960;-78
2023/07/30 03:07:44;;;;;;;;;;;;;;;14.28;100.00;100928.22;4997512;28;20559;-82
2023/07/30 03:10:09;;;;;;;;;;;;;;;14.25;100.00;100928.50;5030215;28;20363;-81
2023/07/30 03:12:34;;;;;;;;;;;;;;;14.34;100.00;100934.91;5011766;28;20435;-78
2023/07/30 03:14:59;;;;;;;;;;;;;;;14.42;100.00;100931.50;4995197;28;19925;-78
2023/07/30 03:17:25;;;;;;;;;;;;;;;14.37;100.00;100940.03;5013903;28;19917;-83
2023/07/30 03:19:50;;;;;;;;;;;;;;;14.35;100.00;100939.31;4996647;28;19922;-82
2023/07/30 03:22:16;;;;;;;;;;;;;;;14.38;100.00;100947.13;4997268;28;19936;-77
2023/07/30 03:24:41;;;;;;;;;;;;;;;14.35;100.00;100950.13;4996171;28;19917;-78
2023/07/30 03:27:06;;;;;;;;;;;;;;;14.20;100.00;100937.03;5015016;28;19993;-77
2023/07/30 03:29:32;;;;;;;;;;;;;;;14.27;100.00;100950.81;5013116;28;19921;-81
2023/07/30 03:31:57;;;;;;;;;;;;;;;14.28;100.00;100957.09;4996395;28;19925;-79
2023/07/30 03:34:22;;;;;;;;;;;;;;;14.24;100.00;100957.38;4996716;28;19921;-83
2023/07/30 03:36:47;;;;;;;;;;;;;;;14.27;100.00;100958.94;5011584;28;20253;-81
2023/07/30 03:39:12;;;;;;;;;;;;;;;14.30;100.00;100953.25;4994548;28;20291;-81
2023/07/30 03:41:38;;;;;;;;;;;;;;;14.34;100.00;100959.22;5012206;28;20438;-83
2023/07/30 03:44:03;;;;;;;;;;;;;;;14.28;100.00;100959.78;4994508;28;19963;-77
2023/07/30 03:46:28;;;;;;;;;;;;;;;14.34;100.00;100959.22;5011125;28;19925;-77
2023/07/30 03:48:53;;;;;;;;;;;;;;;14.33;100.00;100957.50;5009472;28;19972;-78
2023/07/30 03:51:19;;;;;;;;;;;;;;;14.30;100.00;100955.09;5012286;28;19974;-84
2023/07/30 03:53:44;;;;;;;;;;;;;;;14.29;100.00;100962.34;5010139;28;20103;-80
2023/07/30 03:56:09;;;;;;;;;;;;;;;14.30;100.00;100960.50;4997056;28;20005;-78
2023/07/30 03:58:35;;;;;;;;;;;;;;;14.29;100.00;100966.91;5012077;28;19925;-78
2023/07/30 04:01:01;;;;;;;;;;;;;;;14.34;100.00;100964.59;4997076;28;19952;-78
2023/07/30 04:03:26;;;;;;;;;;;;;;;14.34;100.00;100970.00;4997459;28;20311;-80
2023/07/30 04:05:51;;;;;;;;;;;;;;;14.37;100.00;100973.31;4996485;28;19963;-77
2023/07/30 04:08:16;;;;;;;;;;;;;;;14.41;100.00;100968.47;5011249;28;19921;-78
2023/07/30 04:10:41;;;;;;;;;;;;;;;14.37;100.00;100967.03;5014377;28;19979;-79
2023/07/30 04:13:07;;;;;;;;;;;;;;;14.41;100.00;100971.16;4995132;28;19964;-77
2023/07/30 04:15:33;;;;;;;;;;;;;;;14.42;100.00;100972.88;5027632;28;19992;-77
2023/07/30 04:17:58;;;;;;;;;;;;;;;14.51;100.00;100977.44;5013803;28;20362;-78
2023/07/30 04:20:23;;;;;;;;;;;;;;;14.61;100.00;100974.72;5013789;28;20283;-83
2023/07/30 04:22:48;;;;;;;;;;;;;;;14.55;100.00;100980.69;4995194;28;19969;-81
2023/07/30 04:25:14;;;;;;;;;;;;;;;14.55;100.00;100978.00;4998490;28;20040;-77
2023/07/30 04:27:39;;;;;;;;;;;;;;;14.44;100.00;100980.81;4998061;28;20450;-77
2023/07/30 04:30:05;;;;;;;;;;;;;;;14.44;100.00;100978.97;5010533;28;19929;-78
2023/07/30 04:32:30;;;;;;;;;;;;;;;14.40;100.00;100982.97;5025545;28;19921;-79
2023/07/30 04:34:55;;;;;;;;;;;;;;;14.40;100.00;100981.13;4996788;28;20627;-77
2023/07/30 04:37:20;;;;;;;;;;;;;;;14.37;100.00;100986.81;4997234;28;19979;-79
2023/07/30 04:39:46;;;;;;;;;;;;;;;14.38;100.00;100987.66;4993075;28;20024;-77
2023/07/30 04:42:13;;;;;;;;;;;;;;;14.44;100.00;100987.09;4997733;28;19936;-77
2023/07/30 04:44:38;;;;;;;;;;;;;;;14.45;100.00;100986.09;4999560;28;19921;-84
2023/07/30 04:47:03;;;;;;;;;;;;;;;14.48;100.00;100987.66;5014012;28;19932;-76
2023/07/30 04:49:28;;;;;;;;;;;;;;;14.48;100.00;100990.34;4997246;28;20048;-79
2023/07/30 04:51:53;;;;;;;;;;;;;;;14.57;100.00;100994.06;5013382;28;19963;-82
2023/07/30 04:54:19;;;;;;;;;;;;;;;14.59;100.00;100992.06;5010540;28;19995;-76
2023/07/30 04:56:44;;;;;;;;;;;;;;;14.57;100.00;100994.91;4995656;28;20029;-78
2023/07/30 04:59:09;;;;;;;;;;;;;;;14.51;100.00;100981.97;5011420;28;19929;-74
2023/07/30 05:01:34;;;;;;;;;;;;;;;14.48;100.00;100991.22;5011563;28;19970;-75
2023/07/30 05:04:00;;;;;;;;;;;;;;;14.48;100.00;100995.75;4995967;28;19923;-77
2023/07/30 05:06:25;;;;;;;;;;;;;;;14.53;100.00;100988.09;4999423;28;19932;-75
2023/07/30 05:08:50;;;;;;;;;;;;;;;14.46;100.00;100990.50;5016318;28;20004;-77
2023/07/30 05:11:15;;;;;;;;;;;;;;;14.52;100.00;100997.19;5014131;28;19955;-78
2023/07/30 05:13:40;;;;;;;;;;;;;;;14.53;100.00;100993.50;5017993;28;19971;-77
2023/07/30 05:16:06;;;;;;;;;;;;;;;14.65;100.00;101007.72;5017252;28;19921;-83
2023/07/30 05:18:31;;;;;;;;;;;;;;;14.67;100.00;101001.19;5003259;28;20027;-77
2023/07/30 05:20:56;;;;;;;;;;;;;;;14.80;100.00;101006.34;5015301;28;19921;-81
2023/07/30 05:23:21;;;;;;;;;;;;;;;14.94;100.00;101006.88;4997371;28;19955;-76
2023/07/30 05:25:47;;;;;;;;;;;;;;;14.93;100.00;101010.56;5011340;28;19967;-77
2023/07/30 05:28:12;;;;;;;;;;;;;;;15.04;100.00;101020.38;5030942;28;20343;-77
2023/07/30 05:30:37;;;;;;;;;;;;;;;15.03;100.00;101008.72;5013914;28;20453;-78
2023/07/30 05:33:02;;;;;;;;;;;;;;;15.03;100.00;101005.16;5014752;28;19947;-77
2023/07/30 05:35:28;;;;;;;;;;;;;;;15.02;100.00;101011.56;5014993;28;19933;-75
2023/07/30 05:37:53;;;;;;;;;;;;;;;15.09;100.00;101018.97;5012144;28;19928;-80
2023/07/30 05:40:18;;;;;;;;;;;;;;;15.16;100.00;101011.13;5013413;28;19991;-73
2023/07/30 05:42:43;;;;;;;;;;;;;;;15.25;100.00;101007.50;5014399;28;20024;-75
2023/07/30 05:45:09;;;;;;;;;;;;;;;15.25;100.00;101015.63;4997860;28;19921;-75
2023/07/30 05:47:34;;;;;;;;;;;;;;;15.24;100.00;101008.50;4996563;28;20030;-76
2023/07/30 05:49:59;;;;;;;;;;;;;;;15.28;100.00;101009.09;5011972;28;19943;-75
2023/07/30 05:52:24;;;;;;;;;;;;;;;15.29;100.00;101008.09;5015330;28;19917;-77
2023/07/30 05:54:50;;;;;;;;;;;;;;;15.27;100.00;101013.63;5028996;23;20103;-75
2023/07/30 05:57:15;;;;;;;;;;;;;;;15.36;100.00;101013.75;4997652;28;20264;-80
2023/07/30 05:59:40;;;;;;;;;;;;;;;15.40;100.00;101009.78;5014597;28;20287;-76
2023/07/30 06:02:05;;;;;;;;;;;;;;;15.30;100.00;101007.94;5012610;28;19925;-76
2023/07/30 06:04:31;;;;;;;;;;;;;;;15.40;100.00;101016.03;5030678;28;20263;-76
2023/07/30 06:06:57;;;;;;;;;;;;;;;15.48;100.00;101009.91;5030730;28;20512;-77
2023/07/30 06:09:23;;;;;;;;;;;;;;;15.52;100.00;101021.28;4997167;28;19920;-78
2023/07/30 06:11:48;;;;;;;;;;;;;;;15.47;100.00;101016.31;5031340;28;20158;-74
2023/07/30 06:14:13;;;;;;;;;;;;;;;15.39;100.00;101006.19;4998152;28;19932;-75
2023/07/30 06:16:39;;;;;;;;;;;;;;;15.48;100.00;101009.03;5029730;28;20028;-75
2023/07/30 06:19:04;;;;;;;;;;;;;;;15.55;100.00;101007.44;5015225;28;19931;-75
2023/07/30 06:21:29;;;;;;;;;;;;;;;15.43;100.00;101007.63;5014870;28;20696;-83
2023/07/30 06:23:54;;;;;;;;;;;;;;;15.45;100.00;101012.91;5011255;28;20463;-78
2023/07/30 06:26:20;;;;;;;;;;;;;;;15.48;100.00;101009.91;5032420;28;19936;-79
2023/07/30 06:28:45;;;;;;;;;;;;;;;15.54;100.00;101016.56;5029599;28;19925;-77
2023/07/30 06:31:10;;;;;;;;;;;;;;;15.52;100.00;101010.44;4997610;28;20275;-82
2023/07/30 06:33:35;;;;;;;;;;;;;;;15.55;100.00;101002.88;5014284;28;20015;-78
2023/07/30 06:36:01;;;;;;;;;;;;;;;15.43;100.00;101023.84;5015487;28;19960;-75
2023/07/30 06:38:26;;;;;;;;;;;;;;;15.62;100.00;101011.28;5012243;28;20026;-77
2023/07/30 06:40:51;;;;;;;;;;;;;;;15.48;100.00;101017.16;5014592;28;20161;-76
2023/07/30 06:43:17;;;;;;;;;;;;;;;15.45;100.00;101019.16;5030686;28;19967;-76
2023/07/30 06:45:42;;;;;;;;;;;;;;;15.71;100.00;101017.63;5013480;28;20356;-76
2023/07/30 06:48:07;;;;;;;;;;;;;;;15.61;100.00;101020.38;5012022;28;19921;-78
2023/07/30 06:50:32;;;;;;;;;;;;;;;15.63;100.00;101031.06;5014250;28;19921;-75
2023/07/30 06:52:58;;;;;;;;;;;;;;;15.81;100.00;101012.19;5013123;28;19965;-80
2023/07/30 06:55:23;;;;;;;;;;;;;;;15.91;100.00;101013.00;4997426;28;20268;-80
2023/07/30 06:57:48;;;;;;;;;;;;;;;15.98;100.00;101029.50;5031689;28;19929;-75
2023/07/30 07:00:18;;;;;;;;;;;;;;;16.07;100.00;101017.75;4996666;28;19921;-81
2023/07/30 07:02:44;;;;;;;;;;;;;;;16.11;100.00;101016.47;5029164;28;20311;-78
2023/07/30 07:05:09;;;;;;;;;;;;;;;16.14;100.00;101015.31;5013349;28;20396;-76
2023/07/30 07:07:35;;;;;;;;;;;;;;;16.19;100.00;101007.56;5015582;28;19951;-76
2023/07/30 07:10:00;;;;;;;;;;;;;;;16.44;100.00;101013.25;5013053;28;19928;-78
2023/07/30 07:12:25;;;;;;;;;;;;;;;16.71;100.00;101009.63;5016261;28;19917;-78
2023/07/30 07:14:50;;;;;;;;;;;;;;;16.79;100.00;101014.25;5013413;28;19920;-75
2023/07/30 07:17:15;;;;;;;;;;;;;;;16.71;100.00;101012.34;5015459;28;19964;-76
2023/07/30 07:19:41;;;;;;;;;;;;;;;16.70;100.00;101015.19;4997167;28;20045;-78
2023/07/30 07:22:08;;;;;;;;;;;;;;;16.78;100.00;101018.84;5013674;28;20401;-76
2023/07/30 07:24:33;;;;;;;;;;;;;;;16.65;100.00;101012.94;5028435;28;20271;-74
2023/07/30 07:26:58;;;;;;;;;;;;;;;16.86;100.00;101012.63;5015037;28;20331;-77
2023/07/30 07:29:23;;;;;;;;;;;;;;;17.15;100.00;101008.81;5014957;28;20004;-77
2023/07/30 07:31:48;;;;;;;;;;;;;;;17.15;100.00;101007.94;5014808;28;19928;-75
2023/07/30 07:34:14;;;;;;;;;;;;;;;17.52;100.00;101010.38;5013083;28;19921;-77
2023/07/30 07:36:39;;;;;;;;;;;;;;;17.80;100.00;101012.06;5012417;28;19952;-78
2023/07/30 07:39:04;;;;;;;;;;;;;;;17.93;100.00;101004.28;5031802;28;20020;-82
2023/07/30 07:41:29;;;;;;;;;;;;;;;17.90;100.00;101007.34;5015639;28;20020;-83
2023/07/30 07:43:55;;;;;;;;;;;;;;;17.63;100.00;101008.41;5014092;28;20120;-76
2023/07/30 07:46:20;;;;;;;;;;;;;;;17.50;100.00;101014.28;5012384;28;20191;-78
2023/07/30 07:48:45;;;;;;;;;;;;;;;17.54;100.00;101013.78;5013726;28;20027;-78
2023/07/30 07:51:11;;;;;;;;;;;;;;;17.69;100.00;101015.91;5030784;28;19921;-83
2023/07/30 07:53:37;;;;;;;;;;;;;;;17.41;100.00;101017.94;5010851;28;19983;-77
2023/07/30 07:56:02;;;;;;;;;;;;;;;17.52;100.00;101009.53;5010309;28;19976;-78
2023/07/30 07:58:28;;;;;;;;;;;;;;;17.37;100.00;101010.13;5029440;28;19932;-78
2023/07/30 08:00:56;;;;;;;;;;;;;;;17.65;100.00;101018.09;5013834;28;19955;-77
2023/07/30 08:03:21;;;;;;;;;;;;;;;17.76;100.00;101008.81;5010990;28;20024;-74
2023/07/30 08:05:47;;;;;;;;;;;;;;;17.88;100.00;101022.94;5011607;28;19918;-78
2023/07/30 08:08:12;;;;;;;;;;;;;;;17.86;100.00;101024.13;5011083;28;19925;-80
2023/07/30 08:10:38;;;;;;;;;;;;;;;17.61;100.00;101019.41;5026517;28;20741;-77
2023/07/30 08:13:03;;;;;;;;;;;;;;;17.41;100.00;101032.38;5010931;28;19925;-76
2023/07/30 08:15:28;;;;;;;;;;;;;;;17.59;100.00;101026.03;5011403;28;20364;-81
2023/07/30 08:17:54;;;;;;;;;;;;;;;17.67;100.00;101029.63;5011211;28;20440;-80
2023/07/30 08:20:19;;;;;;;;;;;;;;;17.42;100.00;101030.50;5010326;28;19947;-75
2023/07/30 08:22:44;;;;;;;;;;;;;;;17.66;100.00;101030.66;5029356;28;19921;-81
2023/07/30 08:25:09;;;;;;;;;;;;;;;17.78;100.00;101024.94;5012438;28;19931;-76
2023/07/30 08:27:35;;;;;;;;;;;;;;;17.83;100.00;101028.88;5012885;28;19939;-80
2023/07/30 08:30:00;;;;;;;;;;;;;;;17.95;100.00;101034.88;5013149;28;19960;-80
2023/07/30 08:32:25;;;;;;;;;;;;;;;18.02;100.00;101037.78;5026980;28;20008;-82
2023/07/30 08:34:50;;;;;;;;;;;;;;;17.87;100.00;101031.25;5012187;28;19957;-76
2023/07/30 08:37:15;;;;;;;;;;;;;;;17.79;100.00;101034.81;5012098;28;20012;-80
2023/07/30 08:39:41;;;;;;;;;;;;;;;17.47;100.00;101041.75;5015949;28;19927;-78
2023/07/30 08:42:06;;;;;;;;;;;;;;;17.62;100.00;101040.13;5018669;28;19979;-78
2023/07/30 08:44:31;;;;;;;;;;;;;;;17.94;100.00;101043.19;5014739;28;19953;-77
2023/07/30 08:46:56;;;;;;;;;;;;;;;17.97;100.00;101035.56;5027371;28;20238;-77
2023/07/30 08:49:22;;;;;;;;;;;;;;;18.03;100.00;101030.50;5011312;28;19952;-80
2023/07/30 08:51:47;;;;;;;;;;;;;;;17.93;100.00;101039.59;5016093;28;20018;-76
2023/07/30 08:54:13;;;;;;;;;;;;;;;18.03;100.00;101031.34;5028550;28;19968;-80
2023/07/30 08:56:38;;;;;;;;;;;;;;;17.92;100.00;101039.78;5031628;28;19925;-77
2023/07/30 08:59:03;;;;;;;;;;;;;;;17.73;100.00;101041.75;5031413;28;19959;-74
2023/07/30 09:01:31;;;;;;;;;;;;;;;17.62;100.00;101045.56;5015955;28;19925;-75
2023/07/30 09:03:56;;;;;;;;;;;;;;;17.91;100.00;101049.78;5016595;28;20355;-79
2023/07/30 09:06:21;;;;;;;;;;;;;;;17.65;100.00;101058.81;5029652;28;20735;-75
2023/07/30 09:08:46;;;;;;;;;;;;;;;17.83;100.00;101053.31;5011454;28;20380;-76
2023/07/30 09:11:12;;;;;;;;;;;;;;;17.93;100.00;101053.19;5000543;28;19921;-80
2023/07/30 09:13:38;;;;;;;;;;;;;;;17.87;100.00;101048.44;5015242;28;20016;-80
2023/07/30 09:16:13;;;;;;;;;;;;;;;18.11;100.00;101060.44;5012627;28;19928;-76
2023/07/30 09:18:40;;;;;;;;;;;;;;;18.29;100.00;101042.16;5013031;28;19925;-82
2023/07/30 09:21:05;;;;;;;;;;;;;;;18.08;100.00;101049.91;5011799;28;20340;-75
2023/07/30 09:23:30;;;;;;;;;;;;;;;18.33;100.00;101039.94;5024388;28;20455;-77
2023/07/30 09:25:57;;;;;;;;;;;;;;;18.50;100.00;101040.84;5029754;28;20471;-79
2023/07/30 09:28:25;;;;;;;;;;;;;;;18.22;100.00;101040.28;5012433;28;19928;-77
2023/07/30 09:30:50;;;;;;;;;;;;;;;18.67;100.00;101039.00;5011163;28;20007;-80
2023/07/30 09:33:18;;;;;;;;;;;;;;;19.02;100.00;101045.19;5024067;28;19970;-77
2023/07/30 09:35:43;;;;;;;;;;;;;;;19.08;100.00;101053.66;5047658;28;19927;-78
2023/07/30 09:38:08;;;;;;;;;;;;;;;18.97;100.00;101046.69;5013503;28;19964;-78
2023/07/30 09:40:34;;;;;;;;;;;;;;;19.59;100.00;101047.97;5031638;28;20408;-78
2023/07/30 09:43:00;;;;;;;;;;;;;;;19.98;100.00;101047.22;5015102;28;19921;-77
2023/07/30 09:45:25;;;;;;;;;;;;;;;19.95;100.00;101061.19;5032136;28;19920;-77
2023/07/30 09:47:51;;;;;;;;;;;;;;;19.83;100.00;101041.63;5031093;28;19967;-78
2023/07/30 09:50:17;;;;;;;;;;;;;;;19.67;100.00;101049.81;5044055;28;19928;-75
2023/07/30 09:52:43;;;;;;;;;;;;;;;19.92;100.00;101037.00;5028003;28;20167;-83
2023/07/30 09:55:08;;;;;;;;;;;;;;;19.66;100.00;101054.44;5047946;28;20372;-76
2023/07/30 09:57:33;;;;;;;;;;;;;;;19.55;100.00;101052.94;5010835;28;19927;-77
2023/07/30 09:59:58;;;;;;;;;;;;;;;19.33;100.00;101055.34;5046201;28;19924;-78
2023/07/30 10:02:24;;;;;;;;;;;;;;;19.23;100.00;101067.44;5025946;28;19924;-77
2023/07/30 10:04:50;;;;;;;;;;;;;;;18.97;100.00;101058.44;5026809;28;20399;-75
2023/07/30 10:07:16;;;;;;;;;;;;;;;18.72;100.00;101057.53;5044000;28;20388;-77
2023/07/30 10:09:45;;;;;;;;;;;;;;;18.54;100.00;101061.25;5046953;28;20047;-75
2023/07/30 10:12:11;;;;;;;;;;;;;;;18.28;100.00;101093.94;5033612;28;20079;-80
2023/07/30 10:14:36;;;;;;;;;;;;;;;18.01;100.00;101106.72;5018942;28;19923;-76
2023/07/30 10:17:01;;;;;;;;;;;;;;;17.48;100.00;101112.16;5014176;28;20266;-78
2023/07/30 10:19:27;;;;;;;;;;;;;;;16.95;100.00;101105.75;5031227;28;21382;-77
2023/07/30 10:22:02;;;;;;;;;;;;;;;16.61;100.00;101119.97;5035299;28;20517;-80
2023/07/30 10:24:28;;;;;;;;;;;;;;;16.13;100.00;101128.22;5012527;28;19932;-81
2023/07/30 10:26:53;;;;;;;;;;;;;;;15.91;100.00;101126.72;5049107;28;19917;-74
2023/07/30 10:29:19;;;;;;;;;;;;;;;15.91;100.00;101123.16;5032952;28;19931;-83
2023/07/30 10:31:48;;;;;;;;;;;;;;;15.86;100.00;101123.63;5017258;28;20517;-79
2023/07/30 10:34:14;;;;;;;;;;;;;;;15.92;100.00;101128.44;5028733;28;20019;-79
2023/07/30 10:36:49;;;;;;;;;;;;;;;16.15;100.00;101130.78;5030017;28;20298;-75
2023/07/30 10:39:14;;;;;;;;;;;;;;;16.52;100.00;101140.72;5031583;28;19999;-77
2023/07/30 10:41:40;;;;;;;;;;;;;;;16.67;100.00;101132.91;5049298;28;20458;-83
2023/07/30 10:44:05;;;;;;;;;;;;;;;16.88;100.00;101135.34;5023819;28;20385;-77
2023/07/30 10:46:30;;;;;;;;;;;;;;;17.10;100.00;101130.50;5033528;28;19921;-82
2023/07/30 10:48:55;;;;;;;;;;;;;;;16.98;100.00;101127.19;5048118;28;19921;-78
2023/07/30 10:51:21;;;;;;;;;;;;;;;16.99;100.00;101131.59;5046353;28;20035;-81
2023/07/30 10:53:46;;;;;;;;;;;;;;;17.00;100.00;101127.00;5032095;28;20350;-79
2023/07/30 10:56:12;;;;;;;;;;;;;;;17.00;100.00;101119.75;5045668;28;19928;-80
2023/07/30 10:58:37;;;;;;;;;;;;;;;17.03;100.00;101118.56;5030330;28;20370;-82
2023/07/30 11:01:03;;;;;;;;;;;;;;;17.23;100.00;101116.53;5027332;28;20586;-75
2023/07/30 11:03:28;;;;;;;;;;;;;;;17.66;100.00;101124.84;5027859;28;20011;-81
2023/07/30 11:05:54;;;;;;;;;;;;;;;18.38;100.00;101123.72;5045553;28;19937;-80
2023/07/30 11:08:21;;;;;;;;;;;;;;;18.56;100.00;101110.00;5027521;28;19925;-82
2023/07/30 11:10:46;;;;;;;;;;;;;;;18.98;100.00;101109.09;5029311;28;19924;-76
2023/07/30 11:13:12;;;;;;;;;;;;;;;19.34;100.00;101113.38;5025595;28;19917;-83
2023/07/30 11:15:42;;;;;;;;;;;;;;;20.16;100.00;101119.69;5013140;28;19920;-79
2023/07/30 11:18:08;;;;;;;;;;;;;;;20.79;100.00;101100.66;5030220;28;19921;-84
2023/07/30 11:20:33;;;;;;;;;;;;;;;21.56;100.00;101102.41;5048260;28;20318;-79
2023/07/30 11:22:58;;;;;;;;;;;;;;;22.15;100.00;101099.91;5029105;28;20328;-79
2023/07/30 11:25:23;;;;;;;;;;;;;;;22.64;100.00;101100.31;5027833;28;20050;-77
2023/07/30 11:27:49;;;;;;;;;;;;;;;23.07;100.00;101092.09;5043771;28;20135;-77
2023/07/30 11:30:14;;;;;;;;;;;;;;;23.21;100.00;101068.41;5026698;28;19920;-75
2023/07/30 11:32:40;;;;;;;;;;;;;;;23.06;92.87;101085.78;5030171;28;19921;-76
2023/07/30 11:35:06;;;;;;;;;;;;;;;22.91;100.00;101093.22;5035717;28;19920;-75
2023/07/30 11:37:31;;;;;;;;;;;;;;;22.86;93.99;101102.03;5049777;28;19928;-77
2023/07/30 11:39:57;;;;;;;;;;;;;;;23.02;93.08;101100.09;5044870;28;19932;-83
2023/07/30 11:42:22;;;;;;;;;;;;;;;23.70;89.15;101099.59;5012689;28;20408;-77
2023/07/30 11:44:48;;;;;;;;;;;;;;;23.34;84.76;101100.59;5028090;28;20043;-77
2023/07/30 11:47:15;;;;;;;;;;;;;;;22.20;90.42;101102.06;5035963;28;19916;-78
2023/07/30 11:49:41;;;;;;;;;;;;;;;21.84;93.88;101109.16;5033485;28;19947;-76
2023/07/30 11:52:10;;;;;;;;;;;;;;;22.21;94.32;101117.44;5030112;28;19952;-78
2023/07/30 11:54:35;;;;;;;;;;;;;;;22.87;94.19;101109.19;5010268;28;20426;-78
2023/07/30 11:57:00;;;;;;;;;;;;;;;23.34;91.58;101109.66;5027475;28;19928;-78
2023/07/30 11:59:26;;;;;;;;;;;;;;;23.13;88.16;101110.50;5051192;28;19920;-82
2023/07/30 12:01:51;;;;;;;;;;;;;;;23.24;89.57;101122.84;5028603;28;19929;-79
2023/07/30 12:04:16;;;;;;;;;;;;;;;22.38;89.68;101113.44;5025512;28;19968;-79
2023/07/30 12:06:42;;;;;;;;;;;;;;;23.42;85.37;101111.41;5032576;28;20004;-79
2023/07/30 12:09:14;;;;;;;;;;;;;;;24.69;81.49;101119.50;5027380;28;20429;-79
2023/07/30 12:11:48;;;;;;;;;;;;;;;24.73;71.04;101132.84;5033109;28;19999;-80
2023/07/30 12:14:14;;;;;;;;;;;;;;;24.49;76.93;101113.09;5032426;28;20554;-81
2023/07/30 12:16:39;;;;;;;;;;;;;;;24.82;66.80;101115.97;5035096;28;20686;-79
2023/07/30 12:19:05;;;;;;;;;;;;;;;25.05;65.31;101113.91;5032489;28;20070;-79